sensor_id;sensor_type;location;lat;lon;timestamp;P1;durP1;ratioP1;P2;durP2;ratioP2
11313;SDS011;5712;48.858;9.206;2023-05-07T00:00:46;5.00;;;3.70;;
11313;SDS011;5712;48.858;9.206;2023-05-07T00:03:13;4.23;;;3.83;;
11313;SDS011;5712;48.858;9.206;2023-05-07T00:05:39;4.30;;;3.90;;
11313;SDS011;5712;48.858;9.206;2023-05-07T00:08:07;4.47;;;4.07;;
11313;SDS011;5712;48.858;9.206;2023-05-07T00:10:34;4.40;;;4.00;;
11313;SDS011;5712;48.858;9.206;2023-05-07T00:13:00;6.93;;;3.90;;
11313;SDS011;5712;48.858;9.206;2023-05-07T00:15:27;4.47;;;4.03;;
11313;SDS011;5712;48.858;9.206;2023-05-07T00:17:53;5.00;;;4.50;;
11313;SDS011;5712;48.858;9.206;2023-05-07T00:20:22;4.10;;;3.70;;
11313;SDS011;5712;48.858;9.206;2023-05-07T00:22:49;4.07;;;3.63;;
11313;SDS011;5712;48.858;9.206;2023-05-07T00:25:17;4.30;;;3.87;;
11313;SDS011;5712;48.858;9.206;2023-05-07T00:27:44;3.90;;;3.40;;
11313;SDS011;5712;48.858;9.206;2023-05-07T00:30:11;4.07;;;3.73;;
11313;SDS011;5712;48.858;9.206;2023-05-07T00:32:38;4.40;;;3.97;;
11313;SDS011;5712;48.858;9.206;2023-05-07T00:35:05;3.70;;;3.40;;
11313;SDS011;5712;48.858;9.206;2023-05-07T00:37:32;5.37;;;4.30;;
11313;SDS011;5712;48.858;9.206;2023-05-07T00:39:59;4.27;;;3.87;;
11313;SDS011;5712;48.858;9.206;2023-05-07T00:42:30;4.03;;;3.63;;
11313;SDS011;5712;48.858;9.206;2023-05-07T00:44:57;4.60;;;4.20;;
11313;SDS011;5712;48.858;9.206;2023-05-07T00:47:23;4.93;;;3.80;;
11313;SDS011;5712;48.858;9.206;2023-05-07T00:49:51;4.47;;;4.03;;
11313;SDS011;5712;48.858;9.206;2023-05-07T00:52:18;4.13;;;3.73;;
11313;SDS011;5712;48.858;9.206;2023-05-07T00:54:47;3.83;;;3.53;;
11313;SDS011;5712;48.858;9.206;2023-05-07T00:57:14;4.60;;;3.80;;
11313;SDS011;5712;48.858;9.206;2023-05-07T00:59:42;5.07;;;4.17;;
11313;SDS011;5712;48.858;9.206;2023-05-07T01:02:09;4.57;;;3.83;;
11313;SDS011;5712;48.858;9.206;2023-05-07T01:04:36;3.80;;;3.50;;
11313;SDS011;5712;48.858;9.206;2023-05-07T01:07:03;5.00;;;3.93;;
11313;SDS011;5712;48.858;9.206;2023-05-07T01:09:31;4.47;;;3.33;;
11313;SDS011;5712;48.858;9.206;2023-05-07T01:12:00;4.40;;;3.63;;
11313;SDS011;5712;48.858;9.206;2023-05-07T01:14:27;5.00;;;3.87;;
11313;SDS011;5712;48.858;9.206;2023-05-07T01:16:56;4.00;;;3.63;;
11313;SDS011;5712;48.858;9.206;2023-05-07T01:19:23;4.77;;;3.80;;
11313;SDS011;5712;48.858;9.206;2023-05-07T01:21:50;4.60;;;3.60;;
11313;SDS011;5712;48.858;9.206;2023-05-07T01:24:18;4.40;;;4.00;;
11313;SDS011;5712;48.858;9.206;2023-05-07T01:26:45;3.77;;;3.47;;
11313;SDS011;5712;48.858;9.206;2023-05-07T01:29:11;4.50;;;3.93;;
11313;SDS011;5712;48.858;9.206;2023-05-07T01:31:38;3.97;;;3.60;;
11313;SDS011;5712;48.858;9.206;2023-05-07T01:34:07;4.40;;;3.90;;
11313;SDS011;5712;48.858;9.206;2023-05-07T01:36:37;4.13;;;3.60;;
11313;SDS011;5712;48.858;9.206;2023-05-07T01:39:05;4.53;;;4.03;;
11313;SDS011;5712;48.858;9.206;2023-05-07T01:41:34;4.43;;;3.50;;
11313;SDS011;5712;48.858;9.206;2023-05-07T01:44:01;3.93;;;3.53;;
11313;SDS011;5712;48.858;9.206;2023-05-07T01:46:29;4.83;;;3.63;;
11313;SDS011;5712;48.858;9.206;2023-05-07T01:48:57;4.23;;;3.83;;
11313;SDS011;5712;48.858;9.206;2023-05-07T01:51:24;4.00;;;3.60;;
11313;SDS011;5712;48.858;9.206;2023-05-07T01:53:51;3.80;;;3.47;;
11313;SDS011;5712;48.858;9.206;2023-05-07T01:56:18;5.07;;;3.80;;
11313;SDS011;5712;48.858;9.206;2023-05-07T01:58:47;6.63;;;3.90;;
11313;SDS011;5712;48.858;9.206;2023-05-07T02:01:14;6.07;;;3.90;;
11313;SDS011;5712;48.858;9.206;2023-05-07T02:03:40;3.33;;;2.87;;
11313;SDS011;5712;48.858;9.206;2023-05-07T02:06:07;3.43;;;3.13;;
11313;SDS011;5712;48.858;9.206;2023-05-07T02:08:33;4.43;;;3.73;;
11313;SDS011;5712;48.858;9.206;2023-05-07T02:11:00;4.57;;;3.53;;
11313;SDS011;5712;48.858;9.206;2023-05-07T02:13:28;3.97;;;3.50;;
11313;SDS011;5712;48.858;9.206;2023-05-07T02:15:57;3.63;;;3.33;;
11313;SDS011;5712;48.858;9.206;2023-05-07T02:18:24;3.90;;;3.47;;
11313;SDS011;5712;48.858;9.206;2023-05-07T02:20:50;5.37;;;3.40;;
11313;SDS011;5712;48.858;9.206;2023-05-07T02:23:17;3.10;;;2.80;;
11313;SDS011;5712;48.858;9.206;2023-05-07T02:25:43;4.30;;;3.80;;
11313;SDS011;5712;48.858;9.206;2023-05-07T02:28:10;4.30;;;3.47;;
11313;SDS011;5712;48.858;9.206;2023-05-07T02:30:37;4.17;;;3.60;;
11313;SDS011;5712;48.858;9.206;2023-05-07T02:33:06;3.97;;;3.50;;
11313;SDS011;5712;48.858;9.206;2023-05-07T02:35:33;4.87;;;3.50;;
11313;SDS011;5712;48.858;9.206;2023-05-07T02:38:00;4.00;;;3.60;;
11313;SDS011;5712;48.858;9.206;2023-05-07T02:40:26;5.07;;;3.70;;
11313;SDS011;5712;48.858;9.206;2023-05-07T02:42:53;4.70;;;3.40;;
11313;SDS011;5712;48.858;9.206;2023-05-07T02:45:24;4.47;;;3.57;;
11313;SDS011;5712;48.858;9.206;2023-05-07T02:47:51;4.07;;;3.50;;
11313;SDS011;5712;48.858;9.206;2023-05-07T02:50:19;4.23;;;3.70;;
11313;SDS011;5712;48.858;9.206;2023-05-07T02:52:45;5.10;;;3.50;;
11313;SDS011;5712;48.858;9.206;2023-05-07T02:55:12;3.73;;;3.40;;
11313;SDS011;5712;48.858;9.206;2023-05-07T02:57:40;4.70;;;3.87;;
11313;SDS011;5712;48.858;9.206;2023-05-07T03:00:10;5.20;;;3.90;;
11313;SDS011;5712;48.858;9.206;2023-05-07T03:02:38;4.03;;;3.63;;
11313;SDS011;5712;48.858;9.206;2023-05-07T03:05:05;6.30;;;4.33;;
11313;SDS011;5712;48.858;9.206;2023-05-07T03:07:34;4.60;;;4.10;;
11313;SDS011;5712;48.858;9.206;2023-05-07T03:10:00;5.17;;;3.90;;
11313;SDS011;5712;48.858;9.206;2023-05-07T03:12:27;4.77;;;3.90;;
11313;SDS011;5712;48.858;9.206;2023-05-07T03:14:53;5.07;;;4.23;;
11313;SDS011;5712;48.858;9.206;2023-05-07T03:17:20;4.37;;;3.93;;
11313;SDS011;5712;48.858;9.206;2023-05-07T03:19:46;4.60;;;4.20;;
11313;SDS011;5712;48.858;9.206;2023-05-07T03:22:13;4.50;;;4.10;;
11313;SDS011;5712;48.858;9.206;2023-05-07T03:24:41;5.73;;;4.10;;
11313;SDS011;5712;48.858;9.206;2023-05-07T03:27:08;4.07;;;3.67;;
11313;SDS011;5712;48.858;9.206;2023-05-07T03:29:34;5.00;;;4.07;;
11313;SDS011;5712;48.858;9.206;2023-05-07T03:32:00;4.27;;;3.70;;
11313;SDS011;5712;48.858;9.206;2023-05-07T03:34:27;4.40;;;4.00;;
11313;SDS011;5712;48.858;9.206;2023-05-07T03:36:53;4.30;;;3.90;;
11313;SDS011;5712;48.858;9.206;2023-05-07T03:39:20;4.40;;;3.50;;
11313;SDS011;5712;48.858;9.206;2023-05-07T03:41:48;4.23;;;3.60;;
11313;SDS011;5712;48.858;9.206;2023-05-07T03:44:15;4.40;;;4.00;;
11313;SDS011;5712;48.858;9.206;2023-05-07T03:46:41;4.33;;;3.83;;
11313;SDS011;5712;48.858;9.206;2023-05-07T03:49:08;4.50;;;3.80;;
11313;SDS011;5712;48.858;9.206;2023-05-07T03:51:34;4.60;;;3.93;;
11313;SDS011;5712;48.858;9.206;2023-05-07T03:54:01;4.30;;;3.90;;
11313;SDS011;5712;48.858;9.206;2023-05-07T03:56:28;4.83;;;4.33;;
11313;SDS011;5712;48.858;9.206;2023-05-07T03:58:55;5.30;;;4.60;;
11313;SDS011;5712;48.858;9.206;2023-05-07T04:01:22;4.90;;;4.40;;
11313;SDS011;5712;48.858;9.206;2023-05-07T04:03:48;4.67;;;4.20;;
11313;SDS011;5712;48.858;9.206;2023-05-07T04:06:15;4.57;;;4.17;;
11313;SDS011;5712;48.858;9.206;2023-05-07T04:08:43;6.83;;;3.83;;
11313;SDS011;5712;48.858;9.206;2023-05-07T04:11:09;5.03;;;4.07;;
11313;SDS011;5712;48.858;9.206;2023-05-07T04:13:36;5.23;;;4.00;;
11313;SDS011;5712;48.858;9.206;2023-05-07T04:16:04;4.93;;;4.40;;
11313;SDS011;5712;48.858;9.206;2023-05-07T04:18:31;4.70;;;4.27;;
11313;SDS011;5712;48.858;9.206;2023-05-07T04:20:58;4.30;;;3.90;;
11313;SDS011;5712;48.858;9.206;2023-05-07T04:23:24;4.60;;;4.10;;
11313;SDS011;5712;48.858;9.206;2023-05-07T04:25:50;5.07;;;4.57;;
11313;SDS011;5712;48.858;9.206;2023-05-07T04:28:17;5.67;;;4.27;;
11313;SDS011;5712;48.858;9.206;2023-05-07T04:30:44;4.70;;;4.17;;
11313;SDS011;5712;48.858;9.206;2023-05-07T04:33:11;5.23;;;4.13;;
11313;SDS011;5712;48.858;9.206;2023-05-07T04:35:41;4.37;;;3.87;;
11313;SDS011;5712;48.858;9.206;2023-05-07T04:38:07;4.77;;;4.27;;
11313;SDS011;5712;48.858;9.206;2023-05-07T04:40:35;4.40;;;4.00;;
11313;SDS011;5712;48.858;9.206;2023-05-07T04:43:01;5.30;;;4.40;;
11313;SDS011;5712;48.858;9.206;2023-05-07T04:45:28;4.27;;;3.87;;
11313;SDS011;5712;48.858;9.206;2023-05-07T04:47:54;4.37;;;3.97;;
11313;SDS011;5712;48.858;9.206;2023-05-07T04:50:22;4.20;;;3.80;;
11313;SDS011;5712;48.858;9.206;2023-05-07T04:52:50;4.53;;;4.13;;
11313;SDS011;5712;48.858;9.206;2023-05-07T04:55:16;4.30;;;3.60;;
11313;SDS011;5712;48.858;9.206;2023-05-07T04:57:43;4.43;;;4.03;;
11313;SDS011;5712;48.858;9.206;2023-05-07T05:00:10;3.93;;;3.50;;
11313;SDS011;5712;48.858;9.206;2023-05-07T05:02:39;4.20;;;3.43;;
11313;SDS011;5712;48.858;9.206;2023-05-07T05:05:06;4.63;;;3.67;;
11313;SDS011;5712;48.858;9.206;2023-05-07T05:07:34;3.93;;;3.50;;
11313;SDS011;5712;48.858;9.206;2023-05-07T05:10:01;4.20;;;3.77;;
11313;SDS011;5712;48.858;9.206;2023-05-07T05:12:28;4.30;;;3.30;;
11313;SDS011;5712;48.858;9.206;2023-05-07T05:14:55;3.97;;;3.57;;
11313;SDS011;5712;48.858;9.206;2023-05-07T05:17:21;5.53;;;3.63;;
11313;SDS011;5712;48.858;9.206;2023-05-07T05:19:48;4.00;;;3.60;;
11313;SDS011;5712;48.858;9.206;2023-05-07T05:22:14;3.83;;;3.53;;
11313;SDS011;5712;48.858;9.206;2023-05-07T05:27:24;4.53;;;3.67;;
11313;SDS011;5712;48.858;9.206;2023-05-07T05:29:50;3.97;;;3.67;;
11313;SDS011;5712;48.858;9.206;2023-05-07T05:32:17;4.27;;;3.67;;
11313;SDS011;5712;48.858;9.206;2023-05-07T05:34:44;4.60;;;4.20;;
11313;SDS011;5712;48.858;9.206;2023-05-07T05:37:10;4.30;;;3.90;;
11313;SDS011;5712;48.858;9.206;2023-05-07T05:39:51;4.63;;;3.80;;
11313;SDS011;5712;48.858;9.206;2023-05-07T05:42:26;4.63;;;3.47;;
11313;SDS011;5712;48.858;9.206;2023-05-07T05:44:55;3.90;;;3.40;;
11313;SDS011;5712;48.858;9.206;2023-05-07T05:47:21;3.73;;;3.30;;
11313;SDS011;5712;48.858;9.206;2023-05-07T05:49:48;3.57;;;3.27;;
11313;SDS011;5712;48.858;9.206;2023-05-07T05:52:15;4.40;;;3.30;;
11313;SDS011;5712;48.858;9.206;2023-05-07T05:54:42;3.47;;;3.17;;
11313;SDS011;5712;48.858;9.206;2023-05-07T05:57:08;3.30;;;3.00;;
11313;SDS011;5712;48.858;9.206;2023-05-07T05:59:36;4.63;;;3.00;;
11313;SDS011;5712;48.858;9.206;2023-05-07T06:02:02;6.80;;;2.80;;
11313;SDS011;5712;48.858;9.206;2023-05-07T06:04:29;3.20;;;2.83;;
11313;SDS011;5712;48.858;9.206;2023-05-07T06:06:56;3.23;;;2.93;;
11313;SDS011;5712;48.858;9.206;2023-05-07T06:09:22;3.63;;;2.83;;
11313;SDS011;5712;48.858;9.206;2023-05-07T06:11:49;3.17;;;2.87;;
11313;SDS011;5712;48.858;9.206;2023-05-07T06:14:15;3.00;;;2.63;;
11313;SDS011;5712;48.858;9.206;2023-05-07T06:16:43;3.20;;;2.90;;
11313;SDS011;5712;48.858;9.206;2023-05-07T06:19:10;3.30;;;2.80;;
11313;SDS011;5712;48.858;9.206;2023-05-07T06:21:36;3.00;;;2.70;;
11313;SDS011;5712;48.858;9.206;2023-05-07T06:24:04;3.43;;;2.80;;
11313;SDS011;5712;48.858;9.206;2023-05-07T06:26:31;2.83;;;2.43;;
11313;SDS011;5712;48.858;9.206;2023-05-07T06:28:58;3.20;;;2.90;;
11313;SDS011;5712;48.858;9.206;2023-05-07T06:31:28;3.60;;;2.90;;
11313;SDS011;5712;48.858;9.206;2023-05-07T06:33:58;2.73;;;2.50;;
11313;SDS011;5712;48.858;9.206;2023-05-07T06:36:24;2.80;;;2.50;;
11313;SDS011;5712;48.858;9.206;2023-05-07T06:38:51;3.20;;;2.77;;
11313;SDS011;5712;48.858;9.206;2023-05-07T06:41:17;2.90;;;2.70;;
11313;SDS011;5712;48.858;9.206;2023-05-07T06:43:45;3.53;;;2.80;;
11313;SDS011;5712;48.858;9.206;2023-05-07T06:46:11;2.63;;;2.43;;
11313;SDS011;5712;48.858;9.206;2023-05-07T06:48:38;2.80;;;2.53;;
11313;SDS011;5712;48.858;9.206;2023-05-07T06:51:06;4.33;;;2.50;;
11313;SDS011;5712;48.858;9.206;2023-05-07T06:53:32;3.10;;;2.50;;
11313;SDS011;5712;48.858;9.206;2023-05-07T06:55:59;3.33;;;2.83;;
11313;SDS011;5712;48.858;9.206;2023-05-07T06:58:26;3.47;;;2.87;;
11313;SDS011;5712;48.858;9.206;2023-05-07T07:00:52;2.87;;;2.60;;
11313;SDS011;5712;48.858;9.206;2023-05-07T07:03:19;3.67;;;2.83;;
11313;SDS011;5712;48.858;9.206;2023-05-07T07:05:46;2.80;;;2.50;;
11313;SDS011;5712;48.858;9.206;2023-05-07T07:08:14;3.47;;;3.17;;
11313;SDS011;5712;48.858;9.206;2023-05-07T07:10:42;3.10;;;2.77;;
11313;SDS011;5712;48.858;9.206;2023-05-07T07:13:09;4.20;;;2.93;;
11313;SDS011;5712;48.858;9.206;2023-05-07T07:15:35;3.20;;;2.67;;
11313;SDS011;5712;48.858;9.206;2023-05-07T07:18:02;3.10;;;2.80;;
11313;SDS011;5712;48.858;9.206;2023-05-07T07:20:28;3.10;;;2.80;;
11313;SDS011;5712;48.858;9.206;2023-05-07T07:22:55;3.50;;;3.10;;
11313;SDS011;5712;48.858;9.206;2023-05-07T07:25:23;3.00;;;2.70;;
11313;SDS011;5712;48.858;9.206;2023-05-07T07:27:49;4.73;;;3.13;;
11313;SDS011;5712;48.858;9.206;2023-05-07T07:30:16;3.93;;;2.83;;
11313;SDS011;5712;48.858;9.206;2023-05-07T07:32:43;2.60;;;2.40;;
11313;SDS011;5712;48.858;9.206;2023-05-07T07:35:09;2.57;;;2.37;;
11313;SDS011;5712;48.858;9.206;2023-05-07T07:37:36;2.43;;;2.23;;
11313;SDS011;5712;48.858;9.206;2023-05-07T07:40:02;3.87;;;2.87;;
11313;SDS011;5712;48.858;9.206;2023-05-07T07:42:30;2.70;;;2.50;;
11313;SDS011;5712;48.858;9.206;2023-05-07T07:44:57;3.27;;;2.70;;
11313;SDS011;5712;48.858;9.206;2023-05-07T07:47:24;3.27;;;2.97;;
11313;SDS011;5712;48.858;9.206;2023-05-07T07:49:50;3.50;;;2.70;;
11313;SDS011;5712;48.858;9.206;2023-05-07T07:52:17;3.23;;;2.30;;
11313;SDS011;5712;48.858;9.206;2023-05-07T07:54:44;2.60;;;2.40;;
11313;SDS011;5712;48.858;9.206;2023-05-07T07:57:10;4.00;;;3.30;;
11313;SDS011;5712;48.858;9.206;2023-05-07T07:59:39;3.17;;;2.70;;
11313;SDS011;5712;48.858;9.206;2023-05-07T08:02:08;2.60;;;2.40;;
11313;SDS011;5712;48.858;9.206;2023-05-07T08:04:34;3.70;;;2.93;;
11313;SDS011;5712;48.858;9.206;2023-05-07T08:07:02;2.97;;;2.77;;
11313;SDS011;5712;48.858;9.206;2023-05-07T08:09:29;4.40;;;3.00;;
11313;SDS011;5712;48.858;9.206;2023-05-07T08:11:55;2.63;;;2.43;;
11313;SDS011;5712;48.858;9.206;2023-05-07T08:14:21;3.23;;;2.53;;
11313;SDS011;5712;48.858;9.206;2023-05-07T08:16:49;2.87;;;2.57;;
11313;SDS011;5712;48.858;9.206;2023-05-07T08:19:16;2.90;;;2.70;;
11313;SDS011;5712;48.858;9.206;2023-05-07T08:21:42;3.37;;;2.57;;
11313;SDS011;5712;48.858;9.206;2023-05-07T08:24:09;2.70;;;2.50;;
11313;SDS011;5712;48.858;9.206;2023-05-07T08:26:36;3.13;;;2.43;;
11313;SDS011;5712;48.858;9.206;2023-05-07T08:29:04;2.60;;;2.40;;
11313;SDS011;5712;48.858;9.206;2023-05-07T08:31:30;3.00;;;2.40;;
11313;SDS011;5712;48.858;9.206;2023-05-07T08:33:58;2.80;;;2.60;;
11313;SDS011;5712;48.858;9.206;2023-05-07T08:36:36;2.70;;;2.50;;
11313;SDS011;5712;48.858;9.206;2023-05-07T08:39:16;3.50;;;2.77;;
11313;SDS011;5712;48.858;9.206;2023-05-07T08:41:44;2.90;;;2.60;;
11313;SDS011;5712;48.858;9.206;2023-05-07T08:44:11;3.70;;;2.73;;
11313;SDS011;5712;48.858;9.206;2023-05-07T08:46:39;4.03;;;3.07;;
11313;SDS011;5712;48.858;9.206;2023-05-07T08:49:09;4.17;;;3.00;;
11313;SDS011;5712;48.858;9.206;2023-05-07T08:51:36;2.73;;;2.50;;
11313;SDS011;5712;48.858;9.206;2023-05-07T08:54:03;2.57;;;2.33;;
11313;SDS011;5712;48.858;9.206;2023-05-07T08:56:31;4.20;;;3.33;;
11313;SDS011;5712;48.858;9.206;2023-05-07T08:58:58;3.20;;;2.87;;
11313;SDS011;5712;48.858;9.206;2023-05-07T09:01:25;3.43;;;2.80;;
11313;SDS011;5712;48.858;9.206;2023-05-07T09:03:52;3.50;;;3.20;;
11313;SDS011;5712;48.858;9.206;2023-05-07T09:06:20;4.85;;;3.40;;
11313;SDS011;5712;48.858;9.206;2023-05-07T09:08:50;4.07;;;3.67;;
11313;SDS011;5712;48.858;9.206;2023-05-07T09:11:19;5.43;;;3.60;;
11313;SDS011;5712;48.858;9.206;2023-05-07T09:13:47;3.37;;;2.83;;
11313;SDS011;5712;48.858;9.206;2023-05-07T09:16:13;4.50;;;3.13;;
11313;SDS011;5712;48.858;9.206;2023-05-07T09:18:41;3.37;;;3.07;;
11313;SDS011;5712;48.858;9.206;2023-05-07T09:21:09;3.87;;;3.27;;
11313;SDS011;5712;48.858;9.206;2023-05-07T09:23:38;3.63;;;3.20;;
11313;SDS011;5712;48.858;9.206;2023-05-07T09:26:06;2.90;;;2.70;;
11313;SDS011;5712;48.858;9.206;2023-05-07T09:28:37;4.27;;;3.70;;
11313;SDS011;5712;48.858;9.206;2023-05-07T09:31:04;4.13;;;3.10;;
11313;SDS011;5712;48.858;9.206;2023-05-07T09:33:31;3.80;;;3.30;;
11313;SDS011;5712;48.858;9.206;2023-05-07T09:35:57;3.40;;;2.90;;
11313;SDS011;5712;48.858;9.206;2023-05-07T09:38:24;3.13;;;2.87;;
11313;SDS011;5712;48.858;9.206;2023-05-07T09:41:02;4.07;;;3.03;;
11313;SDS011;5712;48.858;9.206;2023-05-07T09:43:31;3.73;;;3.20;;
11313;SDS011;5712;48.858;9.206;2023-05-07T09:45:59;4.57;;;3.17;;
11313;SDS011;5712;48.858;9.206;2023-05-07T09:48:29;3.90;;;3.17;;
11313;SDS011;5712;48.858;9.206;2023-05-07T09:50:56;3.93;;;3.00;;
11313;SDS011;5712;48.858;9.206;2023-05-07T09:53:28;3.20;;;2.90;;
11313;SDS011;5712;48.858;9.206;2023-05-07T09:55:56;3.03;;;2.70;;
11313;SDS011;5712;48.858;9.206;2023-05-07T09:58:24;3.17;;;2.87;;
11313;SDS011;5712;48.858;9.206;2023-05-07T10:00:52;3.43;;;3.07;;
11313;SDS011;5712;48.858;9.206;2023-05-07T10:03:19;2.80;;;2.60;;
11313;SDS011;5712;48.858;9.206;2023-05-07T10:05:47;3.00;;;2.53;;
11313;SDS011;5712;48.858;9.206;2023-05-07T10:08:15;3.40;;;3.10;;
11313;SDS011;5712;48.858;9.206;2023-05-07T10:10:42;6.30;;;3.00;;
11313;SDS011;5712;48.858;9.206;2023-05-07T10:13:08;3.13;;;2.83;;
11313;SDS011;5712;48.858;9.206;2023-05-07T10:15:37;3.97;;;2.77;;
11313;SDS011;5712;48.858;9.206;2023-05-07T10:18:04;3.13;;;2.83;;
11313;SDS011;5712;48.858;9.206;2023-05-07T10:20:33;3.67;;;2.60;;
11313;SDS011;5712;48.858;9.206;2023-05-07T10:23:00;2.90;;;2.70;;
11313;SDS011;5712;48.858;9.206;2023-05-07T10:25:30;2.80;;;2.60;;
11313;SDS011;5712;48.858;9.206;2023-05-07T10:27:59;2.97;;;2.67;;
11313;SDS011;5712;48.858;9.206;2023-05-07T10:30:30;2.50;;;2.30;;
11313;SDS011;5712;48.858;9.206;2023-05-07T10:33:06;3.63;;;2.57;;
11313;SDS011;5712;48.858;9.206;2023-05-07T10:35:37;2.50;;;2.30;;
11313;SDS011;5712;48.858;9.206;2023-05-07T10:38:06;2.50;;;2.30;;
11313;SDS011;5712;48.858;9.206;2023-05-07T10:40:32;2.90;;;2.70;;
11313;SDS011;5712;48.858;9.206;2023-05-07T10:43:00;2.77;;;2.50;;
11313;SDS011;5712;48.858;9.206;2023-05-07T10:45:28;3.17;;;2.60;;
11313;SDS011;5712;48.858;9.206;2023-05-07T10:48:10;2.60;;;2.40;;
11313;SDS011;5712;48.858;9.206;2023-05-07T10:50:38;3.20;;;2.90;;
11313;SDS011;5712;48.858;9.206;2023-05-07T10:53:24;3.10;;;2.57;;
11313;SDS011;5712;48.858;9.206;2023-05-07T10:58:54;3.67;;;2.40;;
11313;SDS011;5712;48.858;9.206;2023-05-07T11:04:19;4.23;;;2.77;;
11313;SDS011;5712;48.858;9.206;2023-05-07T11:09:56;2.60;;;2.40;;
11313;SDS011;5712;48.858;9.206;2023-05-07T11:18:17;2.23;;;2.13;;
11313;SDS011;5712;48.858;9.206;2023-05-07T11:20:49;4.13;;;2.70;;
11313;SDS011;5712;48.858;9.206;2023-05-07T11:26:24;2.63;;;2.40;;
11313;SDS011;5712;48.858;9.206;2023-05-07T11:28:51;4.23;;;2.40;;
11313;SDS011;5712;48.858;9.206;2023-05-07T11:31:20;2.50;;;2.30;;
11313;SDS011;5712;48.858;9.206;2023-05-07T11:33:48;2.47;;;2.27;;
11313;SDS011;5712;48.858;9.206;2023-05-07T11:36:16;2.67;;;2.43;;
11313;SDS011;5712;48.858;9.206;2023-05-07T11:38:44;5.20;;;4.37;;
11313;SDS011;5712;48.858;9.206;2023-05-07T11:41:11;3.50;;;2.60;;
11313;SDS011;5712;48.858;9.206;2023-05-07T11:43:38;3.83;;;2.30;;
11313;SDS011;5712;48.858;9.206;2023-05-07T11:46:05;2.47;;;2.27;;
11313;SDS011;5712;48.858;9.206;2023-05-07T11:48:34;3.53;;;2.40;;
11313;SDS011;5712;48.858;9.206;2023-05-07T11:51:02;2.40;;;2.07;;
11313;SDS011;5712;48.858;9.206;2023-05-07T11:53:36;2.67;;;2.47;;
11313;SDS011;5712;48.858;9.206;2023-05-07T11:56:07;2.47;;;2.27;;
11313;SDS011;5712;48.858;9.206;2023-05-07T11:58:33;2.43;;;2.33;;
11313;SDS011;5712;48.858;9.206;2023-05-07T12:01:00;2.40;;;2.20;;
11313;SDS011;5712;48.858;9.206;2023-05-07T12:03:26;2.23;;;2.03;;
11313;SDS011;5712;48.858;9.206;2023-05-07T12:05:53;2.23;;;2.00;;
11313;SDS011;5712;48.858;9.206;2023-05-07T12:08:20;2.37;;;2.17;;
11313;SDS011;5712;48.858;9.206;2023-05-07T12:10:49;2.83;;;2.27;;
11313;SDS011;5712;48.858;9.206;2023-05-07T12:13:16;2.17;;;2.07;;
11313;SDS011;5712;48.858;9.206;2023-05-07T12:15:44;2.10;;;2.00;;
11313;SDS011;5712;48.858;9.206;2023-05-07T12:18:10;2.97;;;2.30;;
11313;SDS011;5712;48.858;9.206;2023-05-07T12:20:38;2.17;;;2.00;;
11313;SDS011;5712;48.858;9.206;2023-05-07T12:23:05;3.10;;;2.13;;
11313;SDS011;5712;48.858;9.206;2023-05-07T12:25:32;2.10;;;2.00;;
11313;SDS011;5712;48.858;9.206;2023-05-07T12:28:01;2.80;;;2.10;;
11313;SDS011;5712;48.858;9.206;2023-05-07T12:30:29;2.40;;;2.20;;
11313;SDS011;5712;48.858;9.206;2023-05-07T12:32:56;2.67;;;2.10;;
11313;SDS011;5712;48.858;9.206;2023-05-07T12:35:26;2.40;;;2.20;;
11313;SDS011;5712;48.858;9.206;2023-05-07T12:37:56;2.37;;;2.10;;
11313;SDS011;5712;48.858;9.206;2023-05-07T12:40:25;2.23;;;2.13;;
11313;SDS011;5712;48.858;9.206;2023-05-07T12:43:02;2.23;;;2.00;;
11313;SDS011;5712;48.858;9.206;2023-05-07T12:45:29;2.80;;;2.60;;
11313;SDS011;5712;48.858;9.206;2023-05-07T12:47:55;2.53;;;2.27;;
11313;SDS011;5712;48.858;9.206;2023-05-07T12:50:22;2.87;;;2.30;;
11313;SDS011;5712;48.858;9.206;2023-05-07T12:52:49;2.90;;;2.20;;
11313;SDS011;5712;48.858;9.206;2023-05-07T12:55:15;3.77;;;2.27;;
11313;SDS011;5712;48.858;9.206;2023-05-07T12:57:43;2.17;;;2.00;;
11313;SDS011;5712;48.858;9.206;2023-05-07T13:00:15;2.90;;;2.20;;
11313;SDS011;5712;48.858;9.206;2023-05-07T13:02:42;2.33;;;2.13;;
11313;SDS011;5712;48.858;9.206;2023-05-07T13:05:10;3.67;;;2.93;;
11313;SDS011;5712;48.858;9.206;2023-05-07T13:07:37;3.30;;;3.00;;
11313;SDS011;5712;48.858;9.206;2023-05-07T13:10:04;4.77;;;3.93;;
11313;SDS011;5712;48.858;9.206;2023-05-07T13:12:31;5.03;;;3.50;;
11313;SDS011;5712;48.858;9.206;2023-05-07T13:14:57;6.00;;;3.57;;
11313;SDS011;5712;48.858;9.206;2023-05-07T13:17:25;5.03;;;3.20;;
11313;SDS011;5712;48.858;9.206;2023-05-07T13:19:51;3.87;;;3.20;;
11313;SDS011;5712;48.858;9.206;2023-05-07T13:22:18;3.50;;;3.17;;
11313;SDS011;5712;48.858;9.206;2023-05-07T13:24:44;2.83;;;2.63;;
11313;SDS011;5712;48.858;9.206;2023-05-07T13:27:11;2.90;;;2.20;;
11313;SDS011;5712;48.858;9.206;2023-05-07T13:29:37;1.97;;;1.53;;
11313;SDS011;5712;48.858;9.206;2023-05-07T13:32:04;2.30;;;1.60;;
11313;SDS011;5712;48.858;9.206;2023-05-07T13:34:32;3.13;;;1.70;;
11313;SDS011;5712;48.858;9.206;2023-05-07T13:36:58;2.30;;;1.50;;
11313;SDS011;5712;48.858;9.206;2023-05-07T13:39:25;3.67;;;2.40;;
11313;SDS011;5712;48.858;9.206;2023-05-07T13:41:51;2.07;;;1.63;;
11313;SDS011;5712;48.858;9.206;2023-05-07T13:44:18;3.00;;;1.83;;
11313;SDS011;5712;48.858;9.206;2023-05-07T13:46:44;1.83;;;1.40;;
11313;SDS011;5712;48.858;9.206;2023-05-07T13:49:11;1.43;;;1.33;;
11313;SDS011;5712;48.858;9.206;2023-05-07T13:51:39;1.43;;;1.33;;
11313;SDS011;5712;48.858;9.206;2023-05-07T13:54:05;2.97;;;1.30;;
11313;SDS011;5712;48.858;9.206;2023-05-07T13:56:32;1.47;;;1.27;;
11313;SDS011;5712;48.858;9.206;2023-05-07T13:58:59;3.20;;;1.30;;
11313;SDS011;5712;48.858;9.206;2023-05-07T14:01:25;1.17;;;1.00;;
11313;SDS011;5712;48.858;9.206;2023-05-07T14:03:52;1.40;;;0.93;;
11313;SDS011;5712;48.858;9.206;2023-05-07T14:06:18;3.60;;;1.03;;
11313;SDS011;5712;48.858;9.206;2023-05-07T14:08:46;2.20;;;1.20;;
11313;SDS011;5712;48.858;9.206;2023-05-07T14:11:12;1.47;;;1.23;;
11313;SDS011;5712;48.858;9.206;2023-05-07T14:13:39;2.17;;;1.30;;
11313;SDS011;5712;48.858;9.206;2023-05-07T14:16:06;1.43;;;1.07;;
11313;SDS011;5712;48.858;9.206;2023-05-07T14:18:33;3.37;;;1.03;;
11313;SDS011;5712;48.858;9.206;2023-05-07T14:21:02;3.30;;;1.30;;
11313;SDS011;5712;48.858;9.206;2023-05-07T14:23:28;2.23;;;1.60;;
11313;SDS011;5712;48.858;9.206;2023-05-07T14:25:56;2.40;;;1.53;;
11313;SDS011;5712;48.858;9.206;2023-05-07T14:28:23;2.93;;;1.60;;
11313;SDS011;5712;48.858;9.206;2023-05-07T14:30:49;1.83;;;1.40;;
11313;SDS011;5712;48.858;9.206;2023-05-07T14:33:16;2.57;;;1.70;;
11313;SDS011;5712;48.858;9.206;2023-05-07T14:35:43;2.17;;;1.67;;
11313;SDS011;5712;48.858;9.206;2023-05-07T14:38:13;1.80;;;1.70;;
11313;SDS011;5712;48.858;9.206;2023-05-07T14:40:40;2.80;;;2.20;;
11313;SDS011;5712;48.858;9.206;2023-05-07T14:43:07;2.43;;;2.23;;
11313;SDS011;5712;48.858;9.206;2023-05-07T14:45:34;3.17;;;2.10;;
11313;SDS011;5712;48.858;9.206;2023-05-07T14:48:00;2.43;;;1.97;;
11313;SDS011;5712;48.858;9.206;2023-05-07T14:50:27;2.67;;;2.10;;
11313;SDS011;5712;48.858;9.206;2023-05-07T14:52:53;2.40;;;2.20;;
11313;SDS011;5712;48.858;9.206;2023-05-07T14:55:20;2.53;;;2.30;;
11313;SDS011;5712;48.858;9.206;2023-05-07T14:57:46;2.30;;;2.10;;
11313;SDS011;5712;48.858;9.206;2023-05-07T15:00:14;2.80;;;2.50;;
11313;SDS011;5712;48.858;9.206;2023-05-07T15:02:41;5.20;;;2.57;;
11313;SDS011;5712;48.858;9.206;2023-05-07T15:05:08;2.80;;;2.47;;
11313;SDS011;5712;48.858;9.206;2023-05-07T15:07:34;3.90;;;2.43;;
11313;SDS011;5712;48.858;9.206;2023-05-07T15:10:01;2.40;;;2.20;;
11313;SDS011;5712;48.858;9.206;2023-05-07T15:12:27;2.53;;;2.30;;
11313;SDS011;5712;48.858;9.206;2023-05-07T15:14:54;2.50;;;2.30;;
11313;SDS011;5712;48.858;9.206;2023-05-07T15:17:22;3.33;;;2.37;;
11313;SDS011;5712;48.858;9.206;2023-05-07T15:19:48;2.17;;;2.07;;
11313;SDS011;5712;48.858;9.206;2023-05-07T15:22:15;2.20;;;2.00;;